• Join FlightAware (Why Join?)
  • Login
  • US Flag 
07:57PM EDT


 

Airport Tracker/Info


-or-


 

Live Flight TrackerFlight Track Log ✈ UPS1121 ✈ 13-May-2013 ✈ KBDL - KPHL

Flight Track Log - Related Links

Times and Time Zones

All times are in EDT time to prevent confusion due to time zone crossing. See the UPS1121 flight status page for this flight to view local times or setup timezone preferences in your user account.

Time Position Orientation Groundspeed Altitude Reporting Facility
EDT Latitude Longitude Course Direction KTS MPH feet Rate Location/Type
10:03PM 41.9417 -72.6997 260° West 149 171 1,400  Level Boston Center
10:03PM 41.9394 -72.7164 260° West 160 184 2,000 2,160 Climbing Boston Center
10:04PM 41.9042 -72.7217 186° South 223 257 3,700 2,640 Climbing Boston Center
10:05PM 41.8500 -72.6686 144° Southeast 236 272 6,600 3,000 Climbing Boston Center
10:06PM 41.7875 -72.6100 145° Southeast 269 310 9,700 2,640 Climbing Boston Center
10:07PM 41.7208 -72.5514 147° Southeast 303 349 11,900 2,760 Climbing Boston Center
10:08PM 41.6375 -72.4733 145° Southeast 332 382 15,300 2,820 Climbing Boston Center
10:09PM 41.5542 -72.4844 186° South 315 362 17,600 2,160 Climbing Boston Center
10:10PM 41.4647 -72.5231 198° South 328 377 19,700 1,200 Climbing Boston Center
10:11PM 41.3750 -72.5728 203° Southwest 342 394 20,000 120 Climbing Boston Center
10:12PM 41.2853 -72.6197 201° Southwest 353 406 20,000  Level Boston Center
10:13PM 41.1956 -72.6692 203° Southwest 353 406 20,000  Level Boston Center
10:14PM 41.1100 -72.7128 201° Southwest 348 400 20,000  Level Boston Center
10:15PM 41.0286 -72.7675 207° Southwest 342 394 20,000  Level Boston Center
10:16PM 40.9450 -72.8247 207° Southwest 342 394 20,000  Level Boston Center
10:18PM 40.7708 -72.9469 208° Southwest 335 386 20,000  Level New York Center
10:19PM 40.6864 -73.0069 208° Southwest 341 392 20,000  Level New York Center
10:20PM 40.6019 -73.0672 208° Southwest 341 392 20,000  Level New York Center
10:21PM 40.5156 -73.1242 207° Southwest 346 398 20,000  Level New York Center
10:22PM 40.4308 -73.1842 208° Southwest 351 404 20,000  Level New York Center
10:23PM 40.3442 -73.2408 206° Southwest 351 404 20,000  Level New York Center
10:24PM 40.2553 -73.3031 208° Southwest 356 410 20,000  Level New York Center
10:25PM 40.1664 -73.3678 209° Southwest 356 410 20,000  Level New York Center
10:26PM 40.0756 -73.4239 205° Southwest 356 410 20,000  Level New York Center
10:27PM 39.9864 -73.4908 210° Southwest 361 415 20,000  Level New York Center
10:28PM 39.8953 -73.5550 208° Southwest 366 421 20,000  Level New York Center
10:29PM 39.8283 -73.6578 230° Southwest 360 414 20,000  Level New York Center
10:30PM 39.7661 -73.7614 232° Southwest 373 429 20,000  Level Washington Center
10:31PM 39.7011 -73.8656 231° Southwest 384 442 20,000 -1,020 Level Washington Center
10:32PM 39.6358 -73.9667 230° Southwest 384 442 18,000 -2,160 Descending Washington Center
10:33PM 39.5744 -74.0625 230° Southwest 371 427 15,700 -2,040 Descending Washington Center
10:34PM 39.5258 -74.1711 240° Southwest 358 412 14,000 -900 Descending Washington Center
10:35PM 39.5294 -74.2919 272° West 332 382 14,000 -240 Level Washington Center
10:36PM 39.5306 -74.4131 271° West 337 388 13,600 -1,320 Descending Washington Center
10:37PM 39.5333 -74.6167 271° West 299 344 10,300 -1,440 Descending Philadelphia TRACON
10:38PM 39.5333 -74.7167 270° West 263 303 9,600 -660 Descending Philadelphia TRACON
10:40PM 39.5333 -74.8167 270° West 264 304 9,000 -540 Descending Philadelphia TRACON
10:41PM 39.5500 -74.9167 282° West 270 311 8,500 -960 Descending Philadelphia TRACON
10:41PM 39.5833 -74.9333 339° North 256 295 7,500 -1,500 Descending Philadelphia TRACON
10:42PM 39.6500 -74.9667 339° North 257 296 6,100 -1,140 Descending Philadelphia TRACON
10:43PM 39.7167 -75.0000 339° North 252 290 5,300 -900 Descending Philadelphia TRACON
10:44PM 39.7833 -75.0167 349° North 236 272 4,400 -960 Descending Philadelphia TRACON
10:45PM 39.8500 -75.0333 349° North 220 253 3,400 -840 Descending Philadelphia TRACON
10:46PM 39.9000 -75.0500 346° North 187 215 2,900 -720 Descending Philadelphia TRACON
10:47PM 39.9000 -75.1000 270° West 161 185 2,000 -840 Descending Philadelphia TRACON